95121 UUMU-UUMU
Flight info
| Callsign | 95121 |
|---|---|
| Flight time | 0h 47m |
| Altitude | 30000 |
| Route | K0741F300 /UUR269/F300 /RA/M0060 |
| Aircraft | T154/M-SDGRWY/S |
Departure
| Time | 2026-04-22 20:54 |
|---|---|
| Airport | Chkalovskiy Air Base (UUMU) |
Arrival
| Time | 2026-04-22 21:42 |
|---|---|
| Airport | Chkalovskiy Air Base (UUMU) |
| Time | Latitude | Longitude | Altitude | Speed | Heading |
|---|---|---|---|---|---|
| 2026-04-22 20:15 | 55.88135 | 38.03003 | 516 ft | 0 kts | 101° |
| 2026-04-22 20:40 | 55.88133 | 38.03014 | 516 ft | 1 kts | 101° |
| 2026-04-22 20:41 | 55.88130 | 38.03043 | 516 ft | 3 kts | 101° |
| 2026-04-22 20:41 | 55.88135 | 38.03076 | 516 ft | 3 kts | 51° |
| 2026-04-22 20:41 | 55.88163 | 38.03101 | 515 ft | 5 kts | 16° |
| 2026-04-22 20:41 | 55.88206 | 38.03119 | 515 ft | 7 kts | 10° |
| 2026-04-22 20:42 | 55.88261 | 38.03138 | 515 ft | 9 kts | 11° |
| 2026-04-22 20:42 | 55.88330 | 38.03161 | 515 ft | 10 kts | 11° |
| 2026-04-22 20:42 | 55.88411 | 38.03188 | 515 ft | 12 kts | 10° |
| 2026-04-22 20:42 | 55.88440 | 38.03199 | 515 ft | 1 kts | 18° |
| 2026-04-22 20:43 | 55.88458 | 38.03211 | 515 ft | 3 kts | 23° |
| 2026-04-22 20:43 | 55.88488 | 38.03239 | 515 ft | 5 kts | 29° |
| 2026-04-22 20:43 | 55.88529 | 38.03278 | 515 ft | 7 kts | 28° |
| 2026-04-22 20:43 | 55.88582 | 38.03318 | 515 ft | 9 kts | 11° |
| 2026-04-22 20:44 | 55.88635 | 38.03339 | 516 ft | 4 kts | 25° |
| 2026-04-22 20:44 | 55.88646 | 38.03366 | 515 ft | 2 kts | 71° |
| 2026-04-22 20:44 | 55.88649 | 38.03407 | 515 ft | 4 kts | 94° |
| 2026-04-22 20:44 | 55.88646 | 38.03466 | 515 ft | 5 kts | 94° |
| 2026-04-22 20:45 | 55.88643 | 38.03542 | 515 ft | 6 kts | 98° |
| 2026-04-22 20:45 | 55.88634 | 38.03621 | 515 ft | 7 kts | 101° |
| 2026-04-22 20:45 | 55.88631 | 38.03672 | 515 ft | 2 kts | 75° |
| 2026-04-22 20:45 | 55.88639 | 38.03698 | 515 ft | 2 kts | 50° |
| 2026-04-22 20:46 | 55.88691 | 38.03728 | 515 ft | 5 kts | 9° |
| 2026-04-22 20:46 | 55.88732 | 38.03740 | 515 ft | 6 kts | 9° |
| 2026-04-22 20:46 | 55.88786 | 38.03756 | 515 ft | 8 kts | 9° |
| 2026-04-22 20:47 | 55.88823 | 38.03773 | 515 ft | 1 kts | 48° |
| 2026-04-22 20:47 | 55.88826 | 38.03807 | 515 ft | 3 kts | 89° |
| 2026-04-22 20:47 | 55.88821 | 38.03865 | 515 ft | 5 kts | 111° |
| 2026-04-22 20:47 | 55.88796 | 38.03931 | 515 ft | 7 kts | 128° |
| 2026-04-22 20:48 | 55.88772 | 38.03981 | 516 ft | 8 kts | 131° |
| 2026-04-22 20:48 | 55.88713 | 38.04101 | 515 ft | 10 kts | 131° |
| 2026-04-22 20:48 | 55.88678 | 38.04174 | 515 ft | 12 kts | 130° |
| 2026-04-22 20:48 | 55.88597 | 38.04342 | 515 ft | 14 kts | 131° |
| 2026-04-22 20:49 | 55.88528 | 38.04488 | 515 ft | 16 kts | 130° |
| 2026-04-22 20:49 | 55.88451 | 38.04648 | 515 ft | 17 kts | 130° |
| 2026-04-22 20:49 | 55.88396 | 38.04764 | 515 ft | 19 kts | 130° |
| 2026-04-22 20:49 | 55.88273 | 38.05020 | 515 ft | 21 kts | 130° |
| 2026-04-22 20:50 | 55.88173 | 38.05230 | 515 ft | 23 kts | 130° |
| 2026-04-22 20:50 | 55.88065 | 38.05452 | 515 ft | 24 kts | 131° |
| 2026-04-22 20:50 | 55.87942 | 38.05684 | 515 ft | 26 kts | 135° |
| 2026-04-22 20:50 | 55.87829 | 38.05929 | 515 ft | 25 kts | 126° |
| 2026-04-22 20:51 | 55.87753 | 38.06103 | 516 ft | 26 kts | 130° |
| 2026-04-22 20:51 | 55.87587 | 38.06448 | 515 ft | 28 kts | 130° |
| 2026-04-22 20:51 | 55.87455 | 38.06724 | 516 ft | 29 kts | 130° |
| 2026-04-22 20:51 | 55.87319 | 38.07009 | 516 ft | 30 kts | 130° |
| 2026-04-22 20:52 | 55.87225 | 38.07204 | 516 ft | 8 kts | 121° |
| 2026-04-22 20:52 | 55.87220 | 38.07275 | 515 ft | 9 kts | 75° |
| 2026-04-22 20:52 | 55.87305 | 38.07343 | 516 ft | 11 kts | 4° |
| 2026-04-22 20:52 | 55.87391 | 38.07355 | 516 ft | 13 kts | 5° |
| 2026-04-22 20:53 | 55.87455 | 38.07367 | 515 ft | 14 kts | 6° |
| 2026-04-22 20:53 | 55.87563 | 38.07289 | 515 ft | 1 kts | 311° |
| 2026-04-22 20:53 | 55.87564 | 38.07286 | 515 ft | 0 kts | 311° |
| 2026-04-22 20:54 | 55.87589 | 38.07235 | 516 ft | 30 kts | 310° |
| 2026-04-22 20:54 | 55.88169 | 38.06027 | 517 ft | 157 kts | 309° |
| 2026-04-22 20:54 | 55.88985 | 38.04390 | 1206 ft | 186 kts | 309° |
| 2026-04-22 20:55 | 55.89893 | 38.02600 | 2012 ft | 212 kts | 310° |
| 2026-04-22 20:55 | 55.90588 | 38.01250 | 2501 ft | 233 kts | 310° |
| 2026-04-22 20:55 | 55.92117 | 37.98584 | 2496 ft | 232 kts | 326° |
| 2026-04-22 20:55 | 55.93613 | 37.97615 | 2503 ft | 224 kts | 353° |
| 2026-04-22 20:56 | 55.95153 | 37.97911 | 2525 ft | 235 kts | 19° |
| 2026-04-22 20:56 | 55.96570 | 37.99384 | 2516 ft | 233 kts | 38° |
| 2026-04-22 20:56 | 55.97823 | 38.01259 | 3291 ft | 235 kts | 40° |
| 2026-04-22 20:56 | 55.99059 | 38.03177 | 4147 ft | 241 kts | 40° |
| 2026-04-22 20:57 | 56.00448 | 38.04746 | 5070 ft | 238 kts | 17° |
| 2026-04-22 20:57 | 56.02081 | 38.05017 | 5876 ft | 237 kts | 346° |
| 2026-04-22 20:57 | 56.03629 | 38.04225 | 6725 ft | 237 kts | 343° |
| 2026-04-22 20:57 | 56.05247 | 38.03609 | 7629 ft | 238 kts | 346° |
| 2026-04-22 20:58 | 56.06881 | 38.03083 | 8469 ft | 241 kts | 348° |
| 2026-04-22 20:58 | 56.08500 | 38.02608 | 9316 ft | 242 kts | 348° |
| 2026-04-22 20:58 | 56.10169 | 38.02148 | 10127 ft | 244 kts | 351° |
| 2026-04-22 20:58 | 56.11326 | 38.02069 | 10283 ft | 265 kts | 3° |
| 2026-04-22 20:59 | 56.13940 | 38.03412 | 10165 ft | 313 kts | 15° |
| 2026-04-22 20:59 | 56.15336 | 38.04060 | 10695 ft | 309 kts | 12° |
| 2026-04-22 20:59 | 56.18130 | 38.05316 | 11585 ft | 313 kts | 11° |
| 2026-04-22 20:59 | 56.20237 | 38.06235 | 12309 ft | 315 kts | 11° |
| 2026-04-22 21:00 | 56.22376 | 38.07154 | 12988 ft | 317 kts | 11° |
| 2026-04-22 21:00 | 56.24532 | 38.08071 | 13640 ft | 320 kts | 11° |
| 2026-04-22 21:00 | 56.26689 | 38.08986 | 14260 ft | 323 kts | 11° |
| 2026-04-22 21:00 | 56.28876 | 38.09912 | 14897 ft | 325 kts | 11° |
| 2026-04-22 21:01 | 56.31098 | 38.10852 | 15522 ft | 328 kts | 11° |
| 2026-04-22 21:01 | 56.33318 | 38.11792 | 16218 ft | 330 kts | 11° |
| 2026-04-22 21:01 | 56.35549 | 38.12737 | 16830 ft | 334 kts | 11° |
| 2026-04-22 21:01 | 56.37846 | 38.13708 | 17482 ft | 336 kts | 11° |
| 2026-04-22 21:02 | 56.40116 | 38.14671 | 18133 ft | 340 kts | 11° |
| 2026-04-22 21:02 | 56.42417 | 38.15649 | 18984 ft | 342 kts | 11° |
| 2026-04-22 21:02 | 56.44746 | 38.16640 | 19755 ft | 346 kts | 11° |
| 2026-04-22 21:02 | 56.47092 | 38.17638 | 20515 ft | 349 kts | 11° |
| 2026-04-22 21:03 | 56.49394 | 38.19148 | 21209 ft | 357 kts | 26° |
| 2026-04-22 21:03 | 56.51373 | 38.21945 | 21855 ft | 367 kts | 43° |
| 2026-04-22 21:03 | 56.53041 | 38.25471 | 22514 ft | 372 kts | 47° |
| 2026-04-22 21:03 | 56.54695 | 38.29088 | 23149 ft | 375 kts | 46° |
| 2026-04-22 21:04 | 56.55815 | 38.31459 | 23553 ft | 377 kts | 45° |
| 2026-04-22 21:04 | 56.58123 | 38.36179 | 24361 ft | 382 kts | 44° |
| 2026-04-22 21:04 | 56.59912 | 38.39759 | 25066 ft | 384 kts | 44° |
| 2026-04-22 21:04 | 56.61709 | 38.43331 | 25665 ft | 387 kts | 44° |
| 2026-04-22 21:05 | 56.63526 | 38.46941 | 26269 ft | 391 kts | 44° |
| 2026-04-22 21:05 | 56.65376 | 38.50618 | 26879 ft | 395 kts | 43° |
| 2026-04-22 21:05 | 56.67241 | 38.54329 | 27553 ft | 397 kts | 43° |
| 2026-04-22 21:05 | 56.69093 | 38.58019 | 28118 ft | 401 kts | 43° |
| 2026-04-22 21:06 | 56.70998 | 38.61824 | 28723 ft | 404 kts | 43° |
| 2026-04-22 21:06 | 56.72886 | 38.65597 | 29239 ft | 408 kts | 44° |
| 2026-04-22 21:06 | 56.74786 | 38.69413 | 29456 ft | 420 kts | 44° |
| 2026-04-22 21:06 | 56.76819 | 38.73500 | 29380 ft | 440 kts | 44° |
| 2026-04-22 21:07 | 56.78901 | 38.77692 | 29392 ft | 456 kts | 45° |
| 2026-04-22 21:07 | 56.81083 | 38.82089 | 29389 ft | 471 kts | 45° |
| 2026-04-22 21:07 | 56.85370 | 38.90772 | 29346 ft | 451 kts | 45° |
| 2026-04-22 21:08 | 56.89668 | 38.99479 | 29312 ft | 460 kts | 45° |
| 2026-04-22 21:08 | 56.92651 | 39.05547 | 29300 ft | 457 kts | 45° |
| 2026-04-22 21:09 | 56.97721 | 39.15923 | 29294 ft | 458 kts | 47° |
| 2026-04-22 21:09 | 56.99433 | 39.20746 | 29300 ft | 465 kts | 61° |
| 2026-04-22 21:09 | 57.00451 | 39.26374 | 29296 ft | 473 kts | 76° |
| 2026-04-22 21:10 | 57.00657 | 39.32121 | 29297 ft | 480 kts | 90° |
| 2026-04-22 21:10 | 57.00144 | 39.37910 | 29312 ft | 485 kts | 99° |
| 2026-04-22 21:10 | 56.98301 | 39.49992 | 29294 ft | 485 kts | 104° |
| 2026-04-22 21:11 | 56.97089 | 39.55814 | 29003 ft | 484 kts | 111° |
| 2026-04-22 21:11 | 56.95352 | 39.61019 | 28426 ft | 486 kts | 126° |
| 2026-04-22 21:11 | 56.93044 | 39.65155 | 27911 ft | 486 kts | 142° |
| 2026-04-22 21:11 | 56.90062 | 39.68307 | 27385 ft | 483 kts | 158° |
| 2026-04-22 21:12 | 56.86863 | 39.69957 | 26859 ft | 479 kts | 172° |
| 2026-04-22 21:12 | 56.83691 | 39.70152 | 26374 ft | 473 kts | 187° |
| 2026-04-22 21:12 | 56.80392 | 39.69136 | 25854 ft | 468 kts | 194° |
| 2026-04-22 21:12 | 56.77275 | 39.67614 | 25356 ft | 462 kts | 202° |
| 2026-04-22 21:13 | 56.74414 | 39.65085 | 24843 ft | 455 kts | 214° |
| 2026-04-22 21:13 | 56.71912 | 39.61702 | 24354 ft | 448 kts | 224° |
| 2026-04-22 21:13 | 56.69619 | 39.57867 | 23837 ft | 443 kts | 227° |
| 2026-04-22 21:13 | 56.67469 | 39.53970 | 23342 ft | 439 kts | 229° |
| 2026-04-22 21:14 | 56.65362 | 39.50029 | 22844 ft | 435 kts | 229° |
| 2026-04-22 21:14 | 56.63277 | 39.46087 | 22326 ft | 432 kts | 229° |
| 2026-04-22 21:14 | 56.61200 | 39.42159 | 21816 ft | 429 kts | 229° |
| 2026-04-22 21:14 | 56.59146 | 39.38282 | 21318 ft | 425 kts | 229° |
| 2026-04-22 21:15 | 56.57152 | 39.34529 | 20827 ft | 422 kts | 229° |
| 2026-04-22 21:15 | 56.55479 | 39.31378 | 20381 ft | 419 kts | 229° |
| 2026-04-22 21:15 | 56.51678 | 39.24235 | 19409 ft | 413 kts | 229° |
| 2026-04-22 21:16 | 56.49692 | 39.20515 | 18915 ft | 409 kts | 229° |
| 2026-04-22 21:16 | 56.47745 | 39.16878 | 18417 ft | 406 kts | 229° |
| 2026-04-22 21:16 | 56.45771 | 39.13199 | 17905 ft | 403 kts | 228° |
| 2026-04-22 21:16 | 56.43874 | 39.09669 | 17434 ft | 399 kts | 228° |
| 2026-04-22 21:17 | 56.41933 | 39.06061 | 16949 ft | 395 kts | 228° |
| 2026-04-22 21:17 | 56.40035 | 39.02541 | 16493 ft | 390 kts | 228° |
| 2026-04-22 21:17 | 56.38139 | 38.99031 | 16023 ft | 386 kts | 228° |
| 2026-04-22 21:17 | 56.36267 | 38.95570 | 15558 ft | 382 kts | 228° |
| 2026-04-22 21:18 | 56.34436 | 38.92190 | 15101 ft | 378 kts | 228° |
| 2026-04-22 21:18 | 56.32621 | 38.88843 | 14611 ft | 374 kts | 228° |
| 2026-04-22 21:18 | 56.30843 | 38.85422 | 14124 ft | 370 kts | 231° |
| 2026-04-22 21:18 | 56.29168 | 38.81921 | 13609 ft | 367 kts | 232° |
| 2026-04-22 21:19 | 56.27503 | 38.78414 | 13102 ft | 364 kts | 232° |
| 2026-04-22 21:19 | 56.25877 | 38.75024 | 12606 ft | 361 kts | 231° |
| 2026-04-22 21:19 | 56.24207 | 38.71575 | 12093 ft | 359 kts | 231° |
| 2026-04-22 21:19 | 56.22592 | 38.68260 | 11841 ft | 348 kts | 231° |
| 2026-04-22 21:20 | 56.21008 | 38.65025 | 11595 ft | 339 kts | 231° |
| 2026-04-22 21:20 | 56.19473 | 38.61892 | 11295 ft | 332 kts | 231° |
| 2026-04-22 21:20 | 56.17945 | 38.58776 | 10994 ft | 326 kts | 231° |
| 2026-04-22 21:20 | 56.16466 | 38.55764 | 10698 ft | 320 kts | 231° |
| 2026-04-22 21:21 | 56.14997 | 38.52776 | 10396 ft | 315 kts | 231° |
| 2026-04-22 21:21 | 56.13546 | 38.49827 | 10088 ft | 311 kts | 231° |
| 2026-04-22 21:21 | 56.12123 | 38.46940 | 9839 ft | 304 kts | 231° |
| 2026-04-22 21:21 | 56.10749 | 38.44159 | 9673 ft | 296 kts | 231° |
| 2026-04-22 21:22 | 56.09405 | 38.41437 | 9623 ft | 283 kts | 231° |
| 2026-04-22 21:22 | 56.08124 | 38.38849 | 9572 ft | 273 kts | 231° |
| 2026-04-22 21:22 | 56.06863 | 38.36300 | 9442 ft | 266 kts | 231° |
| 2026-04-22 21:22 | 56.05655 | 38.33861 | 9293 ft | 260 kts | 230° |
| 2026-04-22 21:23 | 56.04460 | 38.31443 | 9116 ft | 256 kts | 230° |
| 2026-04-22 21:23 | 56.03278 | 38.29058 | 8928 ft | 253 kts | 230° |
| 2026-04-22 21:23 | 56.02107 | 38.26754 | 8738 ft | 250 kts | 225° |
| 2026-04-22 21:23 | 56.00721 | 38.24871 | 8591 ft | 245 kts | 220° |
| 2026-04-22 21:24 | 55.99417 | 38.22977 | 8475 ft | 239 kts | 221° |
| 2026-04-22 21:24 | 55.98137 | 38.21097 | 8293 ft | 237 kts | 221° |
| 2026-04-22 21:24 | 55.96775 | 38.19427 | 8066 ft | 238 kts | 205° |
| 2026-04-22 21:24 | 55.95152 | 38.18805 | 7830 ft | 242 kts | 181° |
| 2026-04-22 21:25 | 55.93511 | 38.19420 | 7599 ft | 245 kts | 157° |
| 2026-04-22 21:25 | 55.92114 | 38.21211 | 7371 ft | 248 kts | 135° |
| 2026-04-22 21:25 | 55.91001 | 38.23504 | 7159 ft | 247 kts | 131° |
| 2026-04-22 21:25 | 55.89909 | 38.25887 | 6948 ft | 246 kts | 131° |
| 2026-04-22 21:26 | 55.88810 | 38.28283 | 6733 ft | 245 kts | 131° |
| 2026-04-22 21:26 | 55.87727 | 38.30635 | 6519 ft | 244 kts | 131° |
| 2026-04-22 21:26 | 55.86683 | 38.32902 | 6316 ft | 243 kts | 131° |
| 2026-04-22 21:26 | 55.85607 | 38.35240 | 6096 ft | 242 kts | 131° |
| 2026-04-22 21:27 | 55.84530 | 38.37555 | 5884 ft | 240 kts | 135° |
| 2026-04-22 21:27 | 55.83179 | 38.39242 | 5648 ft | 234 kts | 161° |
| 2026-04-22 21:27 | 55.81599 | 38.39715 | 5418 ft | 229 kts | 186° |
| 2026-04-22 21:27 | 55.80093 | 38.38931 | 5187 ft | 224 kts | 212° |
| 2026-04-22 21:28 | 55.78852 | 38.37304 | 4975 ft | 222 kts | 220° |
| 2026-04-22 21:28 | 55.77673 | 38.35524 | 4894 ft | 222 kts | 225° |
| 2026-04-22 21:28 | 55.76827 | 38.33239 | 4936 ft | 223 kts | 250° |
| 2026-04-22 21:28 | 55.76623 | 38.30503 | 4925 ft | 224 kts | 275° |
| 2026-04-22 21:29 | 55.77042 | 38.28085 | 4920 ft | 224 kts | 298° |
| 2026-04-22 21:29 | 55.78081 | 38.25739 | 4935 ft | 228 kts | 310° |
| 2026-04-22 21:29 | 55.79155 | 38.23691 | 4796 ft | 227 kts | 310° |
| 2026-04-22 21:29 | 55.80229 | 38.21664 | 4575 ft | 226 kts | 311° |
| 2026-04-22 21:30 | 55.81325 | 38.19597 | 4324 ft | 227 kts | 311° |
| 2026-04-22 21:30 | 55.82405 | 38.17560 | 4103 ft | 226 kts | 311° |
| 2026-04-22 21:30 | 55.83493 | 38.15505 | 3880 ft | 226 kts | 311° |
| 2026-04-22 21:30 | 55.84562 | 38.13483 | 3661 ft | 226 kts | 311° |
| 2026-04-22 21:31 | 55.85637 | 38.11449 | 3435 ft | 225 kts | 311° |
| 2026-04-22 21:31 | 55.86705 | 38.09425 | 3207 ft | 225 kts | 311° |
| 2026-04-22 21:31 | 55.87786 | 38.07374 | 2978 ft | 225 kts | 311° |
| 2026-04-22 21:31 | 55.88849 | 38.05353 | 2941 ft | 223 kts | 311° |
| 2026-04-22 21:32 | 55.90322 | 38.02693 | 2961 ft | 228 kts | 322° |
| 2026-04-22 21:32 | 55.91249 | 38.01787 | 2936 ft | 228 kts | 338° |
| 2026-04-22 21:32 | 55.92840 | 38.01369 | 2644 ft | 233 kts | 4° |
| 2026-04-22 21:32 | 55.94366 | 38.02209 | 2463 ft | 232 kts | 31° |
| 2026-04-22 21:33 | 55.95656 | 38.03981 | 2541 ft | 237 kts | 40° |
| 2026-04-22 21:33 | 55.96907 | 38.05913 | 2517 ft | 235 kts | 41° |
| 2026-04-22 21:33 | 55.98110 | 38.07789 | 2512 ft | 228 kts | 41° |
| 2026-04-22 21:33 | 55.99347 | 38.09720 | 2530 ft | 238 kts | 41° |
| 2026-04-22 21:34 | 56.00390 | 38.11951 | 2510 ft | 232 kts | 64° |
| 2026-04-22 21:34 | 56.00784 | 38.14690 | 2513 ft | 227 kts | 92° |
| 2026-04-22 21:34 | 56.00456 | 38.17448 | 2526 ft | 229 kts | 118° |
| 2026-04-22 21:34 | 55.99582 | 38.19783 | 2522 ft | 222 kts | 130° |
| 2026-04-22 21:35 | 55.98599 | 38.21975 | 2515 ft | 224 kts | 131° |
| 2026-04-22 21:35 | 55.97618 | 38.24132 | 2524 ft | 225 kts | 131° |
| 2026-04-22 21:35 | 55.96641 | 38.26277 | 2513 ft | 222 kts | 131° |
| 2026-04-22 21:35 | 55.95659 | 38.28434 | 2561 ft | 223 kts | 131° |
| 2026-04-22 21:36 | 55.94658 | 38.30627 | 2507 ft | 218 kts | 131° |
| 2026-04-22 21:36 | 55.93667 | 38.32796 | 2533 ft | 224 kts | 131° |
| 2026-04-22 21:36 | 55.92688 | 38.34941 | 2519 ft | 230 kts | 131° |
| 2026-04-22 21:36 | 55.91680 | 38.37055 | 2522 ft | 221 kts | 138° |
| 2026-04-22 21:37 | 55.89872 | 38.38622 | 2563 ft | 219 kts | 173° |
| 2026-04-22 21:37 | 55.88839 | 38.38583 | 2571 ft | 215 kts | 191° |
| 2026-04-22 21:37 | 55.87491 | 38.37513 | 2573 ft | 222 kts | 216° |
| 2026-04-22 21:37 | 55.86353 | 38.35818 | 2509 ft | 215 kts | 220° |
| 2026-04-22 21:38 | 55.85223 | 38.34055 | 2514 ft | 209 kts | 221° |
| 2026-04-22 21:38 | 55.84087 | 38.32280 | 2527 ft | 213 kts | 221° |
| 2026-04-22 21:38 | 55.82964 | 38.30527 | 2522 ft | 221 kts | 221° |
| 2026-04-22 21:38 | 55.81902 | 38.28691 | 2537 ft | 215 kts | 233° |
| 2026-04-22 21:39 | 55.81292 | 38.26247 | 2573 ft | 210 kts | 257° |
| 2026-04-22 21:39 | 55.81317 | 38.23744 | 2543 ft | 196 kts | 277° |
| 2026-04-22 21:39 | 55.81580 | 38.21468 | 2555 ft | 178 kts | 280° |
| 2026-04-22 21:39 | 55.81973 | 38.19515 | 2538 ft | 157 kts | 300° |
| 2026-04-22 21:40 | 55.82549 | 38.17994 | 2497 ft | 142 kts | 298° |
| 2026-04-22 21:40 | 55.83167 | 38.16573 | 2228 ft | 156 kts | 308° |
| 2026-04-22 21:40 | 55.83869 | 38.15107 | 1817 ft | 154 kts | 308° |
| 2026-04-22 21:40 | 55.84544 | 38.13670 | 1429 ft | 148 kts | 305° |
| 2026-04-22 21:41 | 55.85194 | 38.12294 | 1161 ft | 143 kts | 307° |
| 2026-04-22 21:41 | 55.85853 | 38.10955 | 1001 ft | 141 kts | 307° |
| 2026-04-22 21:41 | 55.86480 | 38.09587 | 796 ft | 144 kts | 306° |
| 2026-04-22 21:41 | 55.87122 | 38.08227 | 581 ft | 141 kts | 307° |
| 2026-04-22 21:42 | 55.87735 | 38.06956 | 520 ft | 125 kts | 307° |
| 2026-04-22 21:42 | 55.88202 | 38.05960 | 516 ft | 84 kts | 309° |
| 2026-04-22 21:42 | 55.88460 | 38.05419 | 516 ft | 24 kts | 310° |
| 2026-04-22 21:42 | 55.88544 | 38.05242 | 516 ft | 19 kts | 310° |
| 2026-04-22 21:43 | 55.88636 | 38.05049 | 516 ft | 21 kts | 309° |
| 2026-04-22 21:43 | 55.88739 | 38.04837 | 515 ft | 23 kts | 310° |
| 2026-04-22 21:43 | 55.88844 | 38.04619 | 515 ft | 25 kts | 309° |
| 2026-04-22 21:43 | 55.88965 | 38.04360 | 516 ft | 22 kts | 308° |
| 2026-04-22 21:44 | 55.88998 | 38.04264 | 516 ft | 2 kts | 279° |
| 2026-04-22 21:44 | 55.88985 | 38.04246 | 515 ft | 2 kts | 178° |
| 2026-04-22 21:44 | 55.88959 | 38.04250 | 516 ft | 4 kts | 174° |
| 2026-04-22 21:44 | 55.88921 | 38.04249 | 516 ft | 6 kts | 186° |
| 2026-04-22 21:45 | 55.88871 | 38.04234 | 515 ft | 8 kts | 191° |
| 2026-04-22 21:45 | 55.88808 | 38.04212 | 516 ft | 9 kts | 191° |
| 2026-04-22 21:45 | 55.88755 | 38.04164 | 515 ft | 8 kts | 238° |
| 2026-04-22 21:45 | 55.88750 | 38.04047 | 515 ft | 10 kts | 291° |
| 2026-04-22 21:46 | 55.88796 | 38.03931 | 516 ft | 11 kts | 311° |
| 2026-04-22 21:46 | 55.88820 | 38.03807 | 515 ft | 11 kts | 247° |
| 2026-04-22 21:46 | 55.88748 | 38.03747 | 515 ft | 12 kts | 190° |
| 2026-04-22 21:46 | 55.88659 | 38.03717 | 516 ft | 10 kts | 192° |
| 2026-04-22 21:47 | 55.88634 | 38.03692 | 515 ft | 2 kts | 240° |
| 2026-04-22 21:47 | 55.88630 | 38.03660 | 515 ft | 2 kts | 268° |
| 2026-04-22 21:47 | 55.88633 | 38.03617 | 516 ft | 4 kts | 278° |
| 2026-04-22 21:47 | 55.88639 | 38.03549 | 515 ft | 6 kts | 278° |
| 2026-04-22 21:48 | 55.88647 | 38.03456 | 516 ft | 8 kts | 277° |
| 2026-04-22 21:48 | 55.88637 | 38.03345 | 516 ft | 9 kts | 223° |
| 2026-04-22 21:48 | 55.88570 | 38.03308 | 516 ft | 11 kts | 198° |
| 2026-04-22 21:48 | 55.88494 | 38.03244 | 516 ft | 12 kts | 207° |
| 2026-04-22 21:49 | 55.88405 | 38.03186 | 516 ft | 14 kts | 190° |
| 2026-04-22 21:49 | 55.88299 | 38.03151 | 516 ft | 16 kts | 191° |
| 2026-04-22 21:49 | 55.88180 | 38.03112 | 516 ft | 18 kts | 190° |
| 2026-04-22 21:49 | 55.88098 | 38.03085 | 516 ft | 2 kts | 191° |
| 2026-04-22 21:50 | 55.88096 | 38.03085 | 516 ft | 0 kts | 191° |